createdAt,value
2018-09-04T00:01:42.646Z,99.90
2018-09-04T00:04:23.580Z,99.90
2018-09-04T00:07:04.801Z,99.90
2018-09-04T00:09:45.625Z,99.90
2018-09-04T00:12:26.716Z,99.90
2018-09-04T00:15:07.567Z,99.90
2018-09-04T00:17:48.295Z,99.90
2018-09-04T00:20:29.085Z,99.90
2018-09-04T00:23:09.488Z,99.90
2018-09-04T00:25:50.362Z,99.90
2018-09-04T00:28:31.477Z,99.90
2018-09-04T00:31:12.721Z,99.90
2018-09-04T00:33:53.972Z,99.90
2018-09-04T00:36:34.372Z,99.90
2018-09-04T00:39:15.097Z,99.90
2018-09-04T00:41:55.421Z,99.90
2018-09-04T00:44:36.212Z,99.90
2018-09-04T00:47:16.714Z,99.90
2018-09-04T00:49:57.842Z,99.90
2018-09-04T00:52:39.478Z,99.90
2018-09-04T00:55:19.875Z,99.90
2018-09-04T00:58:00.584Z,99.90
2018-09-04T01:00:42.288Z,99.90
2018-09-04T01:03:23.234Z,99.90
2018-09-04T01:06:04.995Z,99.90
2018-09-04T01:08:45.350Z,99.90
2018-09-04T01:11:26.166Z,99.90
2018-09-04T01:14:06.961Z,99.90
2018-09-04T01:16:47.834Z,99.90
2018-09-04T01:19:29.120Z,99.90
2018-09-04T01:22:10.018Z,99.90
2018-09-04T01:24:50.659Z,99.90
2018-09-04T01:27:32.060Z,99.90
2018-09-04T01:30:13.113Z,99.90
2018-09-04T01:32:53.688Z,99.90
2018-09-04T01:35:34.318Z,99.90
2018-09-04T01:38:14.813Z,99.90
2018-09-04T01:40:55.395Z,99.90
2018-09-04T01:43:35.965Z,99.90
2018-09-04T01:46:16.676Z,99.90
2018-09-04T01:48:57.429Z,99.90
2018-09-04T01:51:38.266Z,99.90
2018-09-04T01:54:20.125Z,99.90
2018-09-04T01:57:01.200Z,99.90
2018-09-04T01:59:41.987Z,99.90
2018-09-04T02:02:22.345Z,99.90
2018-09-04T02:05:03.297Z,99.90
2018-09-04T02:07:43.777Z,99.90
2018-09-04T02:10:24.962Z,99.90
2018-09-04T02:13:05.789Z,99.90
2018-09-04T02:15:46.701Z,99.90
2018-09-04T02:18:27.287Z,99.90
2018-09-04T02:21:07.747Z,99.90
2018-09-04T02:23:48.117Z,99.90
2018-09-04T02:26:28.656Z,99.90
2018-09-04T02:29:09.244Z,99.90
2018-09-04T02:31:49.985Z,99.90
2018-09-04T02:34:30.749Z,99.90
2018-09-04T02:37:11.674Z,99.90
2018-09-04T02:39:52.757Z,99.90
2018-09-04T02:42:33.546Z,99.90
2018-09-04T02:45:14.635Z,99.90
2018-09-04T02:47:55.332Z,99.90
2018-09-04T02:50:35.892Z,99.90
2018-09-04T02:53:17.345Z,99.90
2018-09-04T02:55:57.811Z,99.90
2018-09-04T02:58:38.724Z,99.90
2018-09-04T03:01:19.488Z,99.90
2018-09-04T03:04:00.032Z,99.90
2018-09-04T03:06:40.571Z,99.90
2018-09-04T03:09:21.189Z,99.90
2018-09-04T03:12:02.156Z,99.90
2018-09-04T03:14:43.074Z,99.90
2018-09-04T03:17:23.974Z,99.90
2018-09-04T03:20:04.540Z,99.90
2018-09-04T03:22:45.352Z,99.90
2018-09-04T03:25:26.164Z,99.90
2018-09-04T03:28:06.512Z,99.90
2018-09-04T03:30:47.534Z,99.90
2018-09-04T03:33:29.060Z,99.90
2018-09-04T03:36:10.261Z,99.90
2018-09-04T03:38:51.057Z,99.90
2018-09-04T03:41:31.420Z,99.90
2018-09-04T03:44:11.848Z,99.90
2018-09-04T03:46:52.213Z,99.90
2018-09-04T03:49:32.600Z,99.90
2018-09-04T03:52:13.533Z,99.90
2018-09-04T03:54:54.138Z,99.90
2018-09-04T03:57:35.011Z,99.90
2018-09-04T04:00:15.428Z,99.90
2018-09-04T04:02:56.860Z,99.90
2018-09-04T04:05:37.438Z,99.90
2018-09-04T04:08:17.877Z,99.90
2018-09-04T04:10:58.608Z,99.90
2018-09-04T04:13:39.149Z,99.90
2018-09-04T04:16:20.285Z,99.90
2018-09-04T04:19:00.656Z,99.90
2018-09-04T04:21:41.069Z,99.90
2018-09-04T04:24:21.634Z,99.90
2018-09-04T04:27:02.505Z,99.90
2018-09-04T04:29:43.303Z,99.90
2018-09-04T04:32:24.592Z,99.90
2018-09-04T04:35:06.056Z,99.90
2018-09-04T04:37:46.601Z,99.90
2018-09-04T04:40:27.512Z,99.90
2018-09-04T04:43:08.946Z,99.90
2018-09-04T04:45:49.767Z,99.90
2018-09-04T04:48:30.596Z,99.90
2018-09-04T04:51:11.104Z,99.90
2018-09-04T04:53:51.678Z,99.90
2018-09-04T04:56:32.645Z,99.90
2018-09-04T04:59:13.465Z,99.90
2018-09-04T05:01:53.852Z,99.90
2018-09-04T05:04:34.465Z,99.90
2018-09-04T05:07:14.982Z,99.90
2018-09-04T05:09:56.892Z,99.90
2018-09-04T05:12:37.657Z,99.90
2018-09-04T05:15:18.471Z,99.90
2018-09-04T05:17:59.083Z,99.90
2018-09-04T05:20:39.793Z,99.90
2018-09-04T05:23:20.618Z,99.90
2018-09-04T05:26:01.097Z,99.90
2018-09-04T05:28:41.691Z,99.90
2018-09-04T05:31:22.860Z,99.90
2018-09-04T05:34:03.695Z,99.90
2018-09-04T05:36:44.272Z,99.90
2018-09-04T05:39:25.172Z,99.90
2018-09-04T05:42:11.620Z,99.90
2018-09-04T05:44:52.473Z,99.90
2018-09-04T05:47:35.376Z,99.90
2018-09-04T05:50:17.128Z,99.90
2018-09-04T05:52:58.245Z,99.90
2018-09-04T05:55:38.929Z,99.90
2018-09-04T05:58:19.801Z,99.90
2018-09-04T06:01:02.296Z,99.90
2018-09-04T06:03:43.152Z,99.90
2018-09-04T06:06:23.667Z,99.90
2018-09-04T06:09:06.215Z,99.90
2018-09-04T06:11:47.129Z,99.90
2018-09-04T06:14:28.013Z,99.90
2018-09-04T06:17:09.080Z,99.90
2018-09-04T06:19:49.557Z,99.90
2018-09-04T06:22:30.729Z,99.90
2018-09-04T06:25:11.492Z,99.90
2018-09-04T06:27:52.429Z,99.90
2018-09-04T06:30:33.437Z,99.90
2018-09-04T06:33:13.972Z,99.90
2018-09-04T06:35:55.223Z,99.90
2018-09-04T06:38:36.125Z,99.90
2018-09-04T06:41:17.887Z,99.90
2018-09-04T06:43:59.124Z,99.90
2018-09-04T06:46:39.602Z,99.90
2018-09-04T06:49:20.745Z,99.90
2018-09-04T06:52:01.197Z,99.90
2018-09-04T06:54:42.149Z,99.90
2018-09-04T06:57:23.942Z,99.90
2018-09-04T07:00:04.953Z,99.90
2018-09-04T07:02:46.173Z,99.90
2018-09-04T07:05:27.085Z,99.90
2018-09-04T07:08:07.525Z,99.90
2018-09-04T07:10:47.904Z,99.90
2018-09-04T07:13:28.633Z,99.90
2018-09-04T07:16:09.318Z,99.90
2018-09-04T07:18:49.864Z,99.90
2018-09-04T07:21:30.942Z,99.90
2018-09-04T07:24:11.789Z,99.90
2018-09-04T07:26:52.655Z,99.90
2018-09-04T07:29:33.496Z,99.90
2018-09-04T07:32:14.797Z,99.90
2018-09-04T07:34:55.375Z,99.90
2018-09-04T07:37:35.884Z,99.90
2018-09-04T07:40:16.753Z,99.90
2018-09-04T07:42:57.730Z,99.90
2018-09-04T07:45:38.495Z,99.90
2018-09-04T07:48:19.593Z,99.90
2018-09-04T07:51:00.380Z,99.90
2018-09-04T07:53:40.907Z,98.60
2018-09-04T07:56:22.212Z,99.90
2018-09-04T07:59:02.924Z,99.90
2018-09-04T08:01:44.030Z,99.90
2018-09-04T08:04:25.287Z,99.90
2018-09-04T08:07:07.046Z,99.90
2018-09-04T08:09:47.638Z,99.90
2018-09-04T08:12:28.394Z,99.90
2018-09-04T08:15:09.540Z,99.90
2018-09-04T08:17:50.042Z,99.90
2018-09-04T08:20:31.171Z,98.20
2018-09-04T08:23:11.772Z,95.70
2018-09-04T08:25:52.871Z,92.60
2018-09-04T08:28:34.119Z,90.40
2018-09-04T08:31:14.958Z,89.10
2018-09-04T08:33:55.507Z,88.20
2018-09-04T08:36:36.498Z,85.10
2018-09-04T08:39:17.197Z,79.40
2018-09-04T08:41:57.624Z,83.30
2018-09-04T08:44:38.199Z,81.10
2018-09-04T08:47:19.454Z,79.40
2018-09-04T08:50:00.381Z,77.60
2018-09-04T08:52:40.757Z,76.50
2018-09-04T08:55:21.952Z,75.30
2018-09-04T08:58:02.573Z,73.00
2018-09-04T09:00:43.317Z,73.10
2018-09-04T09:03:24.525Z,71.80
2018-09-04T09:06:05.638Z,70.30
2018-09-04T09:08:46.694Z,74.70
2018-09-04T09:11:27.204Z,75.00
2018-09-04T09:14:07.554Z,74.40
2018-09-04T09:16:48.620Z,73.70
2018-09-04T09:19:29.282Z,71.00
2018-09-04T09:22:11.031Z,67.70
2018-09-04T09:24:52.211Z,69.00
2018-09-04T09:27:32.685Z,68.00
2018-09-04T09:30:14.377Z,68.90
2018-09-04T09:32:55.191Z,71.60
2018-09-04T09:35:36.233Z,69.80
2018-09-04T09:38:16.708Z,69.20
2018-09-04T09:40:57.304Z,67.80
2018-09-04T09:43:37.857Z,66.60
2018-09-04T09:46:18.989Z,62.80
2018-09-04T09:48:59.442Z,62.10
2018-09-04T09:51:40.009Z,59.00
2018-09-04T09:54:20.504Z,60.40
2018-09-04T09:57:01.712Z,61.50
2018-09-04T09:59:42.719Z,60.50
2018-09-04T10:02:27.449Z,58.40
2018-09-04T10:05:09.369Z,59.00
2018-09-04T10:07:50.740Z,58.20
2018-09-04T10:10:31.588Z,57.10
2018-09-04T10:13:12.376Z,55.30
2018-09-04T10:15:54.101Z,55.10
2018-09-04T10:18:34.632Z,53.80
2018-09-04T10:21:16.333Z,54.00
2018-09-04T10:23:57.339Z,53.90
2018-09-04T10:26:38.368Z,52.00
2018-09-04T10:29:19.712Z,52.10
2018-09-04T10:32:00.445Z,51.40
2018-09-04T10:34:41.113Z,52.10
2018-09-04T10:37:21.945Z,51.50
2018-09-04T10:40:07.955Z,51.70
2018-09-04T10:42:48.807Z,52.10
2018-09-04T10:45:34.776Z,54.50
2018-09-04T10:48:20.149Z,53.50
2018-09-04T10:51:01.388Z,52.10
2018-09-04T10:53:42.052Z,52.60
2018-09-04T10:56:22.851Z,54.80
2018-09-04T10:59:03.419Z,58.20
2018-09-04T11:01:44.133Z,59.00
2018-09-04T11:04:24.868Z,58.90
2018-09-04T11:07:05.625Z,57.70
2018-09-04T11:09:47.218Z,56.90
2018-09-04T11:12:29.128Z,61.00
2018-09-04T11:15:09.728Z,62.30
2018-09-04T11:17:50.205Z,62.60
2018-09-04T11:20:31.217Z,63.70
2018-09-04T11:23:12.097Z,67.50
2018-09-04T11:25:53.361Z,71.00
2018-09-04T11:28:38.260Z,72.10
2018-09-04T11:31:19.025Z,73.10
2018-09-04T11:34:00.000Z,73.80
2018-09-04T11:36:41.249Z,74.10
2018-09-04T11:39:22.130Z,75.20
2018-09-04T11:42:03.040Z,66.90
2018-09-04T11:44:45.161Z,63.50
2018-09-04T11:47:25.562Z,61.30
2018-09-04T11:50:06.234Z,58.80
2018-09-04T11:52:47.104Z,58.20
2018-09-04T11:55:27.948Z,60.10
2018-09-04T11:58:09.881Z,63.70
2018-09-04T12:00:50.482Z,68.10
2018-09-04T12:03:31.428Z,66.90
2018-09-04T12:06:12.333Z,69.30
2018-09-04T12:08:53.178Z,70.00
2018-09-04T12:11:33.845Z,66.00
2018-09-04T12:14:14.411Z,61.00
2018-09-04T12:16:55.214Z,56.20
2018-09-04T12:20:46.569Z,53.90
2018-09-04T12:23:27.592Z,52.90
2018-09-04T12:26:10.654Z,48.90
2018-09-04T12:28:58.326Z,46.80
2018-09-04T12:31:39.256Z,46.90
2018-09-04T12:34:20.241Z,50.20
2018-09-04T12:37:01.115Z,53.20
2018-09-04T12:39:45.668Z,56.80
2018-09-04T12:42:28.152Z,59.80
2018-09-04T12:45:09.311Z,60.70
2018-09-04T12:47:50.891Z,63.40
2018-09-04T12:50:31.884Z,64.90
2018-09-04T12:53:12.753Z,64.90
2018-09-04T12:55:53.761Z,65.10
2018-09-04T12:58:34.617Z,63.60
2018-09-04T13:01:15.009Z,63.70
2018-09-04T13:03:55.971Z,64.60
2018-09-04T13:06:37.596Z,63.40
2018-09-04T13:09:18.084Z,63.90
2018-09-04T13:11:59.733Z,63.40
2018-09-04T13:14:40.973Z,60.00
2018-09-04T13:17:21.607Z,60.50
2018-09-04T13:20:02.839Z,62.50
2018-09-04T13:22:43.407Z,63.40
2018-09-04T13:25:24.148Z,61.40
2018-09-04T13:28:06.105Z,58.60
2018-09-04T13:30:46.688Z,55.70
2018-09-04T13:33:27.448Z,52.90
2018-09-04T13:36:08.249Z,50.90
2018-09-04T13:38:50.280Z,49.40
2018-09-04T13:41:33.572Z,49.40
2018-09-04T13:44:14.786Z,47.60
2018-09-04T13:46:55.689Z,46.60
2018-09-04T13:49:37.011Z,47.00
2018-09-04T13:52:17.941Z,46.80
2018-09-04T13:54:58.468Z,46.20
2018-09-04T13:57:39.033Z,47.10
2018-09-04T14:00:20.070Z,46.80
2018-09-04T14:03:00.953Z,46.70
2018-09-04T14:05:42.610Z,48.20
2018-09-04T14:08:23.582Z,45.50
2018-09-04T14:11:04.116Z,46.80
2018-09-04T14:13:44.670Z,46.40
2018-09-04T14:16:26.641Z,46.60
2018-09-04T14:19:07.270Z,46.00
2018-09-04T14:21:48.505Z,45.40
2018-09-04T14:24:28.890Z,47.60
2018-09-04T14:27:09.385Z,48.70
2018-09-04T14:29:53.965Z,47.50
2018-09-04T14:32:30.460Z,47.60
2018-09-04T14:35:11.063Z,47.00
2018-09-04T14:37:51.527Z,47.70
2018-09-04T14:40:28.769Z,49.40
2018-09-04T14:43:06.338Z,48.20
2018-09-04T14:45:43.327Z,49.20
2018-09-04T14:48:20.021Z,48.10
2018-09-04T14:50:56.954Z,49.30
2018-09-04T14:53:34.142Z,49.20
2018-09-04T14:56:10.908Z,49.70
2018-09-04T14:58:48.717Z,49.60
2018-09-04T15:01:27.213Z,48.30
2018-09-04T15:04:04.048Z,48.50
2018-09-04T15:06:40.909Z,49.20
2018-09-04T15:09:18.584Z,48.70
2018-09-04T15:11:56.381Z,49.60
2018-09-04T15:14:33.550Z,49.80
2018-09-04T15:17:10.527Z,51.80
2018-09-04T15:19:48.273Z,50.20
2018-09-04T15:22:25.225Z,50.20
2018-09-04T15:25:01.569Z,49.20
2018-09-04T15:27:40.081Z,49.80
2018-09-04T15:30:18.086Z,50.00
2018-09-04T15:32:56.172Z,51.10
2018-09-04T15:35:33.665Z,51.80
2018-09-04T15:38:10.876Z,52.10
2018-09-04T15:40:50.271Z,54.40
2018-09-04T15:43:27.145Z,54.50
2018-09-04T15:46:05.229Z,55.10
2018-09-04T15:48:42.861Z,56.40
2018-09-04T15:51:20.193Z,56.80
2018-09-04T15:53:56.544Z,57.60
2018-09-04T15:56:33.754Z,58.10
2018-09-04T15:59:10.527Z,58.40
2018-09-04T16:01:48.406Z,58.40
2018-09-04T16:04:24.919Z,57.50
2018-09-04T16:07:02.496Z,58.30
2018-09-04T16:09:39.961Z,56.70
2018-09-04T16:12:17.310Z,57.20
2018-09-04T16:14:54.796Z,58.30
2018-09-04T16:17:32.824Z,57.30
2018-09-04T16:20:11.160Z,58.30
2018-09-04T16:22:48.703Z,59.80
2018-09-04T16:25:25.322Z,58.80
2018-09-04T16:28:01.685Z,60.30
2018-09-04T16:30:37.889Z,62.20
2018-09-04T16:33:15.163Z,64.80
2018-09-04T16:35:51.689Z,61.90
2018-09-04T16:38:28.037Z,61.70
2018-09-04T16:41:04.685Z,63.70
2018-09-04T16:43:41.382Z,65.00
2018-09-04T16:46:18.448Z,66.30
2018-09-04T16:48:56.814Z,67.20
2018-09-04T16:51:33.392Z,68.70
2018-09-04T16:54:10.556Z,68.90
2018-09-04T16:56:47.514Z,68.40
2018-09-04T16:59:23.978Z,67.30
2018-09-04T17:02:00.384Z,66.60
2018-09-04T17:04:37.175Z,67.00
2018-09-04T17:07:14.093Z,67.30
2018-09-04T17:09:51.955Z,67.60
2018-09-04T17:12:29.329Z,68.20
2018-09-04T17:15:08.351Z,67.80
2018-09-04T17:17:46.942Z,68.20
2018-09-04T17:20:24.557Z,68.70
2018-09-04T17:23:01.592Z,69.10
2018-09-04T17:25:39.532Z,69.00
2018-09-04T17:28:18.480Z,70.30
2018-09-04T17:30:55.708Z,72.00
2018-09-04T17:33:33.117Z,71.80
2018-09-04T17:36:12.022Z,74.00
2018-09-04T17:38:49.761Z,74.20
2018-09-04T17:41:27.337Z,76.60
2018-09-04T17:44:05.019Z,76.70
2018-09-04T17:46:41.390Z,76.70
2018-09-04T17:49:18.509Z,79.00
2018-09-04T17:51:56.818Z,79.60
2018-09-04T17:54:35.468Z,79.90
2018-09-04T17:57:13.282Z,81.40
2018-09-04T17:59:50.965Z,83.30
2018-09-04T18:02:28.453Z,83.60
2018-09-04T18:05:05.004Z,85.20
2018-09-04T18:07:42.172Z,86.40
2018-09-04T18:10:19.616Z,87.70
2018-09-04T18:12:56.360Z,89.40
2018-09-04T18:15:34.490Z,90.30
2018-09-04T18:18:10.997Z,91.20
2018-09-04T18:20:49.169Z,91.60
2018-09-04T18:23:27.884Z,92.30
2018-09-04T18:26:05.660Z,92.90
2018-09-04T18:28:43.217Z,93.30
2018-09-04T18:31:21.434Z,94.20
2018-09-04T18:33:58.571Z,94.50
2018-09-04T18:36:34.628Z,95.70
2018-09-04T18:39:12.224Z,96.00
2018-09-04T18:41:48.589Z,96.80
2018-09-04T18:44:26.202Z,98.00
2018-09-04T18:47:05.364Z,99.10
2018-09-04T18:49:42.186Z,99.80
2018-09-04T18:52:20.183Z,99.90
2018-09-04T18:54:56.626Z,99.90
2018-09-04T18:57:33.504Z,99.90
2018-09-04T19:00:09.898Z,99.90
2018-09-04T19:02:48.276Z,99.90
2018-09-04T19:05:24.788Z,99.90
2018-09-04T19:08:01.138Z,99.90
2018-09-04T19:10:38.633Z,99.90
2018-09-04T19:13:15.276Z,99.90
2018-09-04T19:15:51.877Z,99.90
2018-09-04T19:18:27.732Z,99.90
2018-09-04T19:21:04.226Z,99.90
2018-09-04T19:23:40.439Z,99.90
2018-09-04T19:26:17.038Z,99.90
2018-09-04T19:29:34.124Z,99.90
2018-09-04T19:32:10.120Z,99.90
2018-09-04T19:34:45.986Z,99.90
2018-09-04T19:37:24.337Z,99.90
2018-09-04T19:40:00.777Z,99.90
2018-09-04T19:42:37.677Z,99.90
2018-09-04T19:45:14.228Z,99.90
2018-09-04T19:47:50.449Z,99.90
2018-09-04T19:50:26.653Z,99.90
2018-09-04T19:53:04.561Z,99.90
2018-09-04T19:55:41.333Z,99.90
2018-09-04T19:58:18.206Z,99.90
2018-09-04T20:00:55.907Z,99.90
2018-09-04T20:03:32.516Z,99.90
2018-09-04T20:06:09.522Z,99.90
2018-09-04T20:08:46.303Z,99.90
2018-09-04T20:11:23.146Z,99.90
2018-09-04T20:13:59.763Z,99.90
2018-09-04T20:16:35.644Z,99.90
2018-09-04T20:19:11.426Z,99.90
2018-09-04T20:21:48.378Z,99.90
2018-09-04T20:24:24.261Z,99.90
2018-09-04T20:27:01.229Z,99.90
2018-09-04T20:29:39.119Z,99.90
2018-09-04T20:32:14.792Z,99.90
2018-09-04T20:34:51.134Z,99.90
2018-09-04T20:37:27.663Z,99.90
2018-09-04T20:40:04.301Z,99.90
2018-09-04T20:42:41.482Z,99.90
2018-09-04T20:45:19.676Z,99.90
2018-09-04T20:47:55.683Z,99.90
2018-09-04T20:50:31.702Z,99.90
2018-09-04T20:53:07.999Z,99.90
2018-09-04T20:55:44.341Z,99.90
2018-09-04T20:58:37.081Z,99.90
2018-09-04T21:01:30.887Z,99.90
2018-09-04T21:04:23.949Z,99.90
2018-09-04T21:06:58.427Z,99.90
2018-09-04T21:09:42.526Z,99.90
2018-09-04T21:12:19.488Z,99.90
2018-09-04T21:14:54.978Z,99.90
2018-09-04T21:17:30.677Z,99.90
2018-09-04T21:20:07.677Z,99.90
2018-09-04T21:22:44.101Z,99.90
2018-09-04T21:25:21.053Z,99.90
2018-09-04T21:27:57.106Z,99.90
2018-09-04T21:30:33.957Z,99.90
2018-09-04T21:33:12.463Z,99.90
2018-09-04T21:35:48.628Z,99.90
2018-09-04T21:38:24.930Z,99.90
2018-09-04T21:41:01.881Z,99.90
2018-09-04T21:43:38.246Z,99.90
2018-09-04T21:46:14.702Z,99.90
2018-09-04T21:48:51.187Z,99.90
2018-09-04T21:51:27.300Z,99.90
2018-09-04T21:54:03.892Z,99.90
2018-09-04T21:56:40.062Z,99.90
2018-09-04T21:59:17.238Z,99.90
2018-09-04T22:01:53.711Z,99.90
2018-09-04T22:04:29.263Z,99.90
2018-09-04T22:07:05.738Z,99.90
2018-09-04T22:09:42.809Z,99.90
2018-09-04T22:12:19.133Z,99.90
2018-09-04T22:14:55.731Z,99.90
2018-09-04T22:17:32.160Z,99.90
2018-09-04T22:20:08.501Z,99.90
2018-09-04T22:22:45.173Z,99.90
2018-09-04T22:25:21.522Z,99.90
2018-09-04T22:27:58.207Z,99.90
2018-09-04T22:30:34.641Z,99.90
2018-09-04T22:33:11.334Z,99.90
2018-09-04T22:35:47.253Z,99.90
2018-09-04T22:38:25.088Z,99.90
2018-09-04T22:41:01.258Z,99.90
2018-09-04T22:43:37.992Z,99.90
2018-09-04T22:46:15.064Z,99.90
2018-09-04T22:48:52.202Z,99.90
2018-09-04T22:51:36.546Z,99.90
2018-09-04T22:54:12.916Z,99.90
2018-09-04T22:56:49.276Z,99.90
2018-09-04T22:59:26.405Z,99.90
2018-09-04T23:02:03.319Z,99.90
2018-09-04T23:04:39.607Z,99.90
2018-09-04T23:07:16.010Z,99.90
2018-09-04T23:09:52.225Z,99.90
2018-09-04T23:12:28.370Z,99.90
2018-09-04T23:15:04.898Z,99.90
2018-09-04T23:17:41.266Z,99.90
2018-09-04T23:20:17.408Z,99.90
2018-09-04T23:22:54.122Z,99.90
2018-09-04T23:25:30.568Z,99.90
2018-09-04T23:28:06.816Z,99.90
2018-09-04T23:30:43.256Z,99.90
2018-09-04T23:33:20.785Z,99.90
2018-09-04T23:35:57.386Z,99.90
2018-09-04T23:38:33.617Z,99.90
2018-09-04T23:41:10.223Z,99.90
2018-09-04T23:43:47.747Z,99.90
2018-09-04T23:46:24.564Z,99.90
2018-09-04T23:49:01.648Z,99.90
2018-09-04T23:51:38.447Z,99.90
2018-09-04T23:54:14.236Z,99.90
2018-09-04T23:56:50.055Z,99.90
2018-09-04T23:59:26.233Z,99.90
